createdAt,value
2023-12-01T00:02:34.388Z,70.18
2023-12-01T00:06:20.827Z,70.04
2023-12-01T00:10:07.033Z,69.94
2023-12-01T00:13:39.561Z,70.05
2023-12-01T00:17:19.058Z,70.17
2023-12-01T00:21:05.436Z,70.09
2023-12-01T00:24:34.647Z,70.00
2023-12-01T00:28:04.636Z,69.94
2023-12-01T00:31:50.759Z,69.80
2023-12-01T00:35:18.485Z,69.77
2023-12-01T00:38:35.195Z,69.81
2023-12-01T00:42:21.417Z,69.79
2023-12-01T00:46:20.560Z,69.86
2023-12-01T00:50:06.625Z,69.80
2023-12-01T00:53:53.227Z,69.72
2023-12-01T00:57:39.718Z,69.68
2023-12-01T01:01:29.001Z,69.57
2023-12-01T01:05:15.283Z,69.54
2023-12-01T01:08:44.101Z,69.42
2023-12-01T01:12:28.842Z,69.30
2023-12-01T01:16:10.550Z,69.26
2023-12-01T01:19:56.884Z,69.22
2023-12-01T01:23:43.590Z,69.37
2023-12-01T01:27:29.773Z,69.42
2023-12-01T01:31:16.226Z,69.41
2023-12-01T01:35:02.426Z,69.43
2023-12-01T01:38:15.085Z,69.44
2023-12-01T01:42:01.464Z,69.43
2023-12-01T01:45:48.000Z,69.33
2023-12-01T01:49:34.215Z,68.91
2023-12-01T01:53:20.824Z,68.88
2023-12-01T01:56:58.967Z,68.97
2023-12-01T02:03:45.416Z,69.18
2023-12-01T02:06:14.924Z,69.18
2023-12-01T02:08:45.135Z,69.18
2023-12-01T02:11:15.024Z,69.30
2023-12-01T02:13:48.627Z,69.38
2023-12-01T02:16:15.569Z,69.42
2023-12-01T02:18:44.078Z,69.44
2023-12-01T02:21:12.846Z,69.46
2023-12-01T02:23:40.369Z,69.48
2023-12-01T02:26:12.101Z,69.47
2023-12-01T02:28:39.054Z,69.54
2023-12-01T02:31:06.781Z,69.55
2023-12-01T02:33:38.349Z,69.60
2023-12-01T02:36:13.233Z,69.60
2023-12-01T02:38:46.932Z,69.64
2023-12-01T02:41:17.334Z,69.72
2023-12-01T02:43:46.110Z,69.68
2023-12-01T02:46:13.514Z,69.75
2023-12-01T02:48:41.417Z,69.99
2023-12-01T02:51:09.407Z,70.10
2023-12-01T02:53:37.916Z,70.00
2023-12-01T02:56:11.010Z,70.11
2023-12-01T02:58:38.414Z,70.08
2023-12-01T03:01:07.650Z,70.48
2023-12-01T03:03:55.398Z,71.33
2023-12-01T03:06:44.757Z,71.74
2023-12-01T03:09:24.193Z,71.85
2023-12-01T03:12:13.355Z,71.93
2023-12-01T03:14:40.450Z,71.84
2023-12-01T03:17:47.935Z,71.73
2023-12-01T03:20:29.858Z,71.66
2023-12-01T03:23:16.308Z,71.57
2023-12-01T03:26:03.003Z,71.44
2023-12-01T03:28:39.114Z,71.27
2023-12-01T03:31:09.360Z,71.45
2023-12-01T03:33:41.596Z,71.31
2023-12-01T03:36:09.480Z,71.10
2023-12-01T03:38:57.358Z,71.10
2023-12-01T03:41:25.426Z,71.04
2023-12-01T03:43:52.060Z,70.90
2023-12-01T03:46:22.764Z,70.83
2023-12-01T03:49:09.344Z,70.85
2023-12-01T03:51:57.830Z,71.00
2023-12-01T03:54:24.666Z,71.04
2023-12-01T03:56:53.778Z,70.92
2023-12-01T03:59:23.864Z,70.66
2023-12-01T04:02:10.586Z,70.54
2023-12-01T04:04:43.370Z,71.10
2023-12-01T04:07:10.565Z,71.17
2023-12-01T04:09:39.758Z,70.86
2023-12-01T04:12:11.505Z,70.83
2023-12-01T04:14:39.308Z,71.31
2023-12-01T04:17:16.044Z,71.51
2023-12-01T04:20:22.124Z,71.31
2023-12-01T04:22:58.398Z,71.44
2023-12-01T04:25:26.643Z,71.38
2023-12-01T04:27:57.537Z,71.43
2023-12-01T04:30:25.485Z,71.71
2023-12-01T04:32:58.679Z,71.81
2023-12-01T04:35:33.490Z,72.07
2023-12-01T04:38:23.937Z,72.09
2023-12-01T04:40:51.464Z,72.30
2023-12-01T04:43:21.118Z,72.36
2023-12-01T04:46:07.787Z,72.35
2023-12-01T04:48:35.135Z,72.32
2023-12-01T04:51:01.941Z,72.36
2023-12-01T04:53:29.123Z,72.20
2023-12-01T04:55:57.773Z,72.19
2023-12-01T04:58:25.237Z,72.07
2023-12-01T05:00:52.597Z,71.88
2023-12-01T05:03:19.332Z,71.79
2023-12-01T05:05:47.320Z,71.57
2023-12-01T05:08:13.944Z,71.31
2023-12-01T05:10:45.697Z,71.11
2023-12-01T05:13:16.906Z,71.35
2023-12-01T05:15:45.196Z,71.90
2023-12-01T05:18:12.580Z,72.24
2023-12-01T05:20:40.511Z,72.19
2023-12-01T05:23:13.061Z,72.25
2023-12-01T05:25:42.146Z,72.16
2023-12-01T05:29:09.364Z,71.96
2023-12-01T05:32:56.547Z,71.90
2023-12-01T05:36:43.777Z,71.71
2023-12-01T05:40:17.763Z,72.13
2023-12-01T05:44:04.612Z,72.09
2023-12-01T05:47:35.812Z,71.96
2023-12-01T05:51:26.818Z,71.99
2023-12-01T05:55:14.102Z,72.03
2023-12-01T05:59:00.571Z,71.82
2023-12-01T06:02:47.497Z,71.79
2023-12-01T06:06:34.595Z,71.90
2023-12-01T06:10:21.573Z,72.12
2023-12-01T06:14:08.308Z,72.12
2023-12-01T06:17:56.230Z,72.32
2023-12-01T06:21:43.311Z,72.73
2023-12-01T06:25:18.633Z,72.60
2023-12-01T06:29:05.330Z,72.94
2023-12-01T06:32:52.177Z,72.91
2023-12-01T06:36:39.285Z,72.78
2023-12-01T06:40:35.673Z,72.87
2023-12-01T06:44:21.682Z,72.99
2023-12-01T06:48:08.619Z,72.86
2023-12-01T06:51:55.470Z,72.60
2023-12-01T06:55:44.780Z,72.91
2023-12-01T06:59:22.348Z,72.88
2023-12-01T07:03:09.873Z,72.65
2023-12-01T07:06:56.256Z,72.36
2023-12-01T07:10:42.918Z,72.21
2023-12-01T07:14:31.025Z,72.19
2023-12-01T07:18:21.192Z,72.53
2023-12-01T07:22:08.031Z,72.35
2023-12-01T07:25:56.176Z,72.05
2023-12-01T07:29:44.956Z,72.02
2023-12-01T07:33:31.913Z,72.03
2023-12-01T07:37:21.896Z,71.91
2023-12-01T07:41:09.139Z,71.83
2023-12-01T07:44:56.517Z,71.63
2023-12-01T07:48:45.323Z,71.58
2023-12-01T07:52:32.259Z,71.82
2023-12-01T07:56:19.067Z,71.93
2023-12-01T08:00:05.928Z,71.71
2023-12-01T08:03:52.941Z,71.61
2023-12-01T08:11:27.341Z,71.10
2023-12-01T08:15:14.889Z,70.89
2023-12-01T08:19:02.568Z,70.95
2023-12-01T08:22:52.647Z,70.85
2023-12-01T08:26:42.700Z,70.51
2023-12-01T08:30:28.663Z,70.33
2023-12-01T08:34:22.455Z,70.27
2023-12-01T08:38:02.919Z,70.69
2023-12-01T08:41:50.478Z,70.41
2023-12-01T08:45:41.610Z,70.64
2023-12-01T08:49:28.126Z,70.59
2023-12-01T08:53:16.153Z,70.71
2023-12-01T08:57:03.278Z,70.55
2023-12-01T09:04:44.074Z,70.39
2023-12-01T09:08:38.338Z,70.37
2023-12-01T09:12:25.746Z,70.14
2023-12-01T09:16:12.960Z,69.76
2023-12-01T09:20:03.047Z,69.08
2023-12-01T09:23:50.394Z,68.58
2023-12-01T09:27:39.282Z,68.45
2023-12-01T09:31:27.811Z,68.36
2023-12-01T09:35:53.492Z,67.67
2023-12-01T09:39:07.824Z,67.34
2023-12-01T09:42:55.650Z,67.15
2023-12-01T09:46:43.085Z,66.95
2023-12-01T09:50:41.616Z,65.75
2023-12-01T09:54:28.962Z,65.60
2023-12-01T09:58:16.312Z,64.77
2023-12-01T10:02:03.707Z,64.84
2023-12-01T10:05:51.999Z,65.04
2023-12-01T10:09:39.458Z,66.99
2023-12-01T10:13:35.550Z,67.38
2023-12-01T10:17:23.128Z,68.33
2023-12-01T10:21:10.449Z,67.56
2023-12-01T10:25:00.908Z,67.24
2023-12-01T10:28:48.060Z,66.27
2023-12-01T10:32:35.406Z,65.37
2023-12-01T10:36:23.517Z,65.37
2023-12-01T10:40:11.197Z,65.46
2023-12-01T10:44:00.004Z,65.50
2023-12-01T10:47:51.325Z,64.16
2023-12-01T10:51:38.524Z,63.50
2023-12-01T10:55:29.431Z,64.30
2023-12-01T10:59:16.884Z,63.05
2023-12-01T11:03:04.936Z,63.34
2023-12-01T11:06:51.936Z,62.91
2023-12-01T11:10:57.154Z,62.87
2023-12-01T11:14:50.109Z,62.00
2023-12-01T11:18:39.003Z,63.38
2023-12-01T11:22:26.004Z,61.83
2023-12-01T11:26:22.500Z,61.17
2023-12-01T11:30:12.564Z,61.48
2023-12-01T11:34:00.135Z,61.50
2023-12-01T11:37:50.597Z,62.06
2023-12-01T11:41:40.564Z,62.47
2023-12-01T11:45:37.462Z,62.11
2023-12-01T11:49:27.375Z,62.39
2023-12-01T11:53:17.406Z,61.82
2023-12-01T11:57:05.023Z,61.82
2023-12-01T12:01:01.579Z,61.78
2023-12-01T12:04:49.302Z,61.36
2023-12-01T12:08:36.483Z,61.19
2023-12-01T12:12:23.817Z,61.96
2023-12-01T12:16:11.538Z,62.53
2023-12-01T12:20:09.510Z,62.40
2023-12-01T12:23:53.024Z,63.29
2023-12-01T12:27:40.547Z,62.54
2023-12-01T12:31:27.975Z,62.81
2023-12-01T12:35:15.347Z,63.20
2023-12-01T12:39:02.591Z,62.64
2023-12-01T12:42:52.842Z,62.84
2023-12-01T12:46:40.386Z,62.95
2023-12-01T12:50:29.176Z,63.10
2023-12-01T12:54:18.120Z,63.70
2023-12-01T12:58:05.012Z,62.57
2023-12-01T13:01:52.355Z,61.61
2023-12-01T13:05:39.987Z,63.58
2023-12-01T13:09:30.149Z,62.19
2023-12-01T13:13:17.339Z,63.20
2023-12-01T13:17:05.041Z,62.76
2023-12-01T13:20:52.532Z,62.40
2023-12-01T13:24:40.012Z,62.81
2023-12-01T13:28:27.235Z,63.29
2023-12-01T13:32:14.907Z,63.70
2023-12-01T13:36:04.096Z,63.79
2023-12-01T13:39:51.131Z,63.75
2023-12-01T13:43:39.125Z,63.43
2023-12-01T13:47:26.197Z,63.59
2023-12-01T13:51:15.947Z,63.94
2023-12-01T13:55:03.311Z,63.88
2023-12-01T13:58:53.035Z,63.96
2023-12-01T14:02:41.816Z,64.39
2023-12-01T14:06:29.197Z,64.33
2023-12-01T14:10:19.285Z,64.46
2023-12-01T14:17:51.588Z,64.68
2023-12-01T14:21:38.794Z,64.65
2023-12-01T14:25:26.237Z,64.72
2023-12-01T14:29:18.103Z,64.87
2023-12-01T14:33:05.471Z,65.01
2023-12-01T14:36:52.920Z,65.16
2023-12-01T14:40:41.979Z,65.31
2023-12-01T14:44:29.169Z,65.47
2023-12-01T14:48:16.909Z,65.65
2023-12-01T14:52:03.973Z,65.68
2023-12-01T14:55:51.966Z,65.81
2023-12-01T14:59:44.167Z,65.89
2023-12-01T15:03:31.572Z,66.04
2023-12-01T15:07:19.682Z,66.19
2023-12-01T15:11:07.329Z,66.25
2023-12-01T15:14:54.697Z,66.37
2023-12-01T15:18:41.961Z,66.46
2023-12-01T15:22:30.472Z,66.65
2023-12-01T15:26:19.421Z,66.58
2023-12-01T15:30:06.689Z,66.70
2023-12-01T15:33:53.768Z,66.83
2023-12-01T15:37:45.668Z,66.89
2023-12-01T15:41:33.001Z,67.01
2023-12-01T15:45:23.491Z,67.21
2023-12-01T15:49:12.916Z,67.53
2023-12-01T15:53:00.309Z,67.74
2023-12-01T15:56:49.147Z,67.72
2023-12-01T16:00:40.222Z,67.84
2023-12-01T16:04:27.121Z,68.13
2023-12-01T16:08:14.435Z,68.14
2023-12-01T16:12:01.724Z,68.44
2023-12-01T16:15:48.934Z,68.77
2023-12-01T16:19:38.757Z,68.84
2023-12-01T16:23:25.793Z,68.61
2023-12-01T16:27:13.085Z,68.90
2023-12-01T16:31:00.576Z,68.86
2023-12-01T16:34:47.838Z,68.89
2023-12-01T16:38:35.185Z,68.94
2023-12-01T16:42:22.361Z,68.99
2023-12-01T16:46:10.955Z,68.83
2023-12-01T16:49:57.925Z,69.11
2023-12-01T16:53:45.252Z,69.09
2023-12-01T16:57:32.405Z,69.18
2023-12-01T17:01:20.942Z,69.35
2023-12-01T17:05:10.876Z,69.45
2023-12-01T17:09:00.092Z,69.18
2023-12-01T17:12:45.295Z,69.10
2023-12-01T17:16:32.259Z,69.29
2023-12-01T17:20:20.573Z,69.59
2023-12-01T17:24:07.872Z,69.47
2023-12-01T17:27:55.147Z,69.83
2023-12-01T17:31:42.388Z,70.11
2023-12-01T17:35:30.014Z,70.20
2023-12-01T17:39:17.381Z,70.10
2023-12-01T17:43:04.767Z,70.20
2023-12-01T17:46:52.988Z,69.65
2023-12-01T17:50:41.579Z,69.60
2023-12-01T17:54:28.869Z,70.04
2023-12-01T17:58:16.319Z,70.25
2023-12-01T18:02:04.687Z,70.48
2023-12-01T18:05:51.728Z,69.87
2023-12-01T18:09:42.295Z,70.15
2023-12-01T18:13:31.974Z,69.88
2023-12-01T18:17:19.143Z,70.20
2023-12-01T18:21:08.207Z,70.05
2023-12-01T18:25:20.990Z,70.15
2023-12-01T18:29:09.621Z,70.49
2023-12-01T18:32:57.037Z,70.33
2023-12-01T18:36:45.345Z,70.34
2023-12-01T18:40:32.214Z,70.15
2023-12-01T18:44:19.385Z,70.40
2023-12-01T18:47:48.688Z,70.76
2023-12-01T18:51:28.764Z,70.75
2023-12-01T18:54:16.750Z,71.07
2023-12-01T18:57:56.598Z,71.20
2023-12-01T19:01:42.932Z,70.82
2023-12-01T19:05:10.659Z,70.88
2023-12-01T19:08:36.933Z,70.91
2023-12-01T19:12:03.940Z,70.97
2023-12-01T19:15:30.366Z,70.93
2023-12-01T19:19:16.996Z,70.74
2023-12-01T19:22:35.441Z,71.05
2023-12-01T19:26:05.885Z,71.13
2023-12-01T19:29:53.187Z,71.41
2023-12-01T19:33:40.702Z,71.15
2023-12-01T19:37:27.696Z,71.01
2023-12-01T19:41:14.613Z,71.32
2023-12-01T19:45:01.503Z,71.21
2023-12-01T19:48:32.932Z,71.07
2023-12-01T19:52:06.216Z,71.36
2023-12-01T19:55:53.218Z,71.18
2023-12-01T19:59:39.636Z,71.44
2023-12-01T20:03:27.010Z,71.37
2023-12-01T20:06:48.593Z,71.19
2023-12-01T20:10:34.805Z,71.33
2023-12-01T20:14:06.732Z,71.34
2023-12-01T20:17:40.642Z,71.23
2023-12-01T20:21:27.039Z,71.18
2023-12-01T20:25:14.261Z,71.05
2023-12-01T20:29:01.362Z,70.94
2023-12-01T20:32:48.740Z,71.12
2023-12-01T20:36:35.118Z,71.15
2023-12-01T20:40:21.408Z,71.18
2023-12-01T20:43:49.476Z,71.21
2023-12-01T20:47:15.943Z,71.24
2023-12-01T20:50:43.862Z,71.22
2023-12-01T20:54:34.872Z,71.24
2023-12-01T20:58:21.971Z,71.19
2023-12-01T21:02:10.800Z,71.00
2023-12-01T21:05:57.286Z,71.10
2023-12-01T21:09:44.050Z,71.02
2023-12-01T21:13:30.939Z,70.95
2023-12-01T21:17:18.281Z,71.06
2023-12-01T21:24:49.468Z,71.12
2023-12-01T21:28:36.845Z,71.12
2023-12-01T21:32:25.209Z,71.14
2023-12-01T21:36:12.275Z,71.01
2023-12-01T21:39:58.899Z,70.96
2023-12-01T21:43:46.400Z,71.09
2023-12-01T21:47:34.891Z,70.92
2023-12-01T21:51:21.818Z,71.10
2023-12-01T21:55:09.863Z,71.13
2023-12-01T21:58:57.095Z,71.14
2023-12-01T22:02:44.218Z,71.33
2023-12-01T22:06:34.005Z,71.18
2023-12-01T22:10:20.886Z,71.28
2023-12-01T22:14:08.332Z,71.23
2023-12-01T22:17:57.112Z,71.16
2023-12-01T22:21:44.139Z,71.54
2023-12-01T22:25:30.801Z,71.52
2023-12-01T22:29:17.578Z,71.37
2023-12-01T22:33:05.206Z,71.47
2023-12-01T22:36:52.342Z,71.83
2023-12-01T22:40:39.300Z,71.67
2023-12-01T22:44:30.587Z,71.70
2023-12-01T22:48:18.179Z,71.76
2023-12-01T22:52:06.738Z,71.51
2023-12-01T22:55:54.157Z,71.85
2023-12-01T22:59:41.412Z,71.90
2023-12-01T23:03:29.388Z,71.80
2023-12-01T23:07:02.133Z,71.63
2023-12-01T23:10:48.522Z,71.66
2023-12-01T23:14:07.999Z,71.73
2023-12-01T23:17:37.006Z,71.89
2023-12-01T23:21:23.643Z,71.95
2023-12-01T23:25:10.614Z,71.52
2023-12-01T23:28:56.113Z,71.48
2023-12-01T23:32:33.219Z,71.82
2023-12-01T23:36:19.933Z,71.86
2023-12-01T23:40:06.130Z,71.62
2023-12-01T23:43:52.564Z,71.47
2023-12-01T23:47:38.704Z,71.59
2023-12-01T23:50:49.684Z,71.69
2023-12-01T23:54:18.974Z,71.96
2023-12-01T23:57:58.269Z,71.63
